createdAt,value
2023-01-17T00:01:11.464Z,3.57
2023-01-17T00:03:57.918Z,3.62
2023-01-17T00:06:44.037Z,3.62
2023-01-17T00:09:30.392Z,3.65
2023-01-17T00:11:57.492Z,3.59
2023-01-17T00:14:23.947Z,3.54
2023-01-17T00:16:50.559Z,3.46
2023-01-17T00:19:35.854Z,3.52
2023-01-17T00:22:20.826Z,3.59
2023-01-17T00:25:05.757Z,3.63
2023-01-17T00:27:32.138Z,3.59
2023-01-17T00:29:58.500Z,3.54
2023-01-17T00:32:24.882Z,3.63
2023-01-17T00:34:51.408Z,3.63
2023-01-17T00:37:17.796Z,3.68
2023-01-17T00:39:44.171Z,3.69
2023-01-17T00:42:10.555Z,3.72
2023-01-17T00:44:55.491Z,3.75
2023-01-17T00:47:40.432Z,3.80
2023-01-17T00:50:25.347Z,3.84
2023-01-17T00:53:10.439Z,3.82
2023-01-17T00:55:55.286Z,3.77
2023-01-17T00:58:40.170Z,3.76
2023-01-17T01:01:25.338Z,3.82
2023-01-17T01:04:10.474Z,3.80
2023-01-17T01:06:55.397Z,3.83
2023-01-17T01:09:40.324Z,3.85
2023-01-17T01:12:25.320Z,3.88
2023-01-17T01:15:10.507Z,3.88
2023-01-17T01:17:55.380Z,3.88
2023-01-17T01:20:40.406Z,3.87
2023-01-17T01:23:25.375Z,3.88
2023-01-17T01:26:10.649Z,3.93
2023-01-17T01:28:55.432Z,3.89
2023-01-17T01:31:40.380Z,3.93
2023-01-17T01:34:06.943Z,4.00
2023-01-17T01:36:33.584Z,4.01
2023-01-17T01:39:00.122Z,4.02
2023-01-17T01:41:26.538Z,3.97
2023-01-17T01:43:54.408Z,3.98
2023-01-17T01:46:20.861Z,3.94
2023-01-17T01:48:50.135Z,3.98
2023-01-17T01:51:19.520Z,4.02
2023-01-17T01:53:47.869Z,4.03
2023-01-17T01:56:15.386Z,4.07
2023-01-17T01:58:45.698Z,4.05
2023-01-17T02:01:13.351Z,4.06
2023-01-17T02:03:40.974Z,4.08
2023-01-17T02:06:14.513Z,4.03
2023-01-17T02:08:41.287Z,3.98
2023-01-17T02:11:07.708Z,3.98
2023-01-17T02:13:34.173Z,4.01
2023-01-17T02:16:23.880Z,4.03
2023-01-17T02:18:56.402Z,4.06
2023-01-17T02:21:28.213Z,4.09
2023-01-17T02:24:13.619Z,4.14
2023-01-17T02:26:48.065Z,4.15
2023-01-17T02:29:17.543Z,4.16
2023-01-17T02:31:44.048Z,4.17
2023-01-17T02:34:15.489Z,4.17
2023-01-17T02:37:00.902Z,4.19
2023-01-17T02:39:32.971Z,4.22
2023-01-17T02:42:04.577Z,4.18
2023-01-17T02:44:39.575Z,4.14
2023-01-17T02:47:18.796Z,4.17
2023-01-17T02:49:45.277Z,4.15
2023-01-17T02:52:30.271Z,4.16
2023-01-17T02:55:03.041Z,4.18
2023-01-17T02:57:32.565Z,4.19
2023-01-17T03:00:02.018Z,4.18
2023-01-17T03:02:31.670Z,4.20
2023-01-17T03:05:23.844Z,4.21
2023-01-17T03:07:51.900Z,4.22
2023-01-17T03:10:19.511Z,4.20
2023-01-17T03:12:46.048Z,4.16
2023-01-17T03:15:13.622Z,4.17
2023-01-17T03:17:42.961Z,4.18
2023-01-17T03:20:09.998Z,4.17
2023-01-17T03:22:36.451Z,4.17
2023-01-17T03:25:02.908Z,4.09
2023-01-17T03:27:29.397Z,4.13
2023-01-17T03:29:55.860Z,4.15
2023-01-17T03:32:22.309Z,4.16
2023-01-17T03:34:48.834Z,4.14
2023-01-17T03:37:15.295Z,4.15
2023-01-17T03:39:41.733Z,4.08
2023-01-17T03:42:08.159Z,4.05
2023-01-17T03:44:34.589Z,3.97
2023-01-17T03:47:01.045Z,3.98
2023-01-17T03:49:27.534Z,4.02
2023-01-17T03:51:54.146Z,4.03
2023-01-17T03:54:20.584Z,3.98
2023-01-17T03:56:47.274Z,3.99
2023-01-17T03:59:13.713Z,4.02
2023-01-17T04:01:40.302Z,4.03
2023-01-17T04:04:06.757Z,4.01
2023-01-17T04:06:33.179Z,4.00
2023-01-17T04:08:59.631Z,4.00
2023-01-17T04:11:26.059Z,3.97
2023-01-17T04:13:52.503Z,3.98
2023-01-17T04:16:20.282Z,3.92
2023-01-17T04:18:46.740Z,3.90
2023-01-17T04:21:13.183Z,3.84
2023-01-17T04:23:39.789Z,3.84
2023-01-17T04:26:06.293Z,3.86
2023-01-17T04:28:32.792Z,3.89
2023-01-17T04:31:00.137Z,3.88
2023-01-17T04:33:26.730Z,3.86
2023-01-17T04:35:53.910Z,3.80
2023-01-17T04:38:20.453Z,3.81
2023-01-17T04:40:46.924Z,3.76
2023-01-17T04:43:13.346Z,3.73
2023-01-17T04:45:39.863Z,3.76
2023-01-17T04:48:06.884Z,3.79
2023-01-17T04:50:33.640Z,3.79
2023-01-17T04:53:00.549Z,3.78
2023-01-17T04:55:27.001Z,3.78
2023-01-17T04:57:53.480Z,3.77
2023-01-17T05:00:21.564Z,3.78
2023-01-17T05:02:49.445Z,3.77
2023-01-17T05:05:15.900Z,3.79
2023-01-17T05:07:42.337Z,3.82
2023-01-17T05:10:09.424Z,3.84
2023-01-17T05:12:35.973Z,3.85
2023-01-17T05:15:02.398Z,3.85
2023-01-17T05:17:28.821Z,3.85
2023-01-17T05:19:55.261Z,3.87
2023-01-17T05:22:21.713Z,3.88
2023-01-17T05:24:48.302Z,3.86
2023-01-17T05:27:14.937Z,3.84
2023-01-17T05:29:41.412Z,3.83
2023-01-17T05:32:07.907Z,3.87
2023-01-17T05:34:35.067Z,3.87
2023-01-17T05:37:01.596Z,3.90
2023-01-17T05:39:28.128Z,3.91
2023-01-17T05:41:54.571Z,3.93
2023-01-17T05:44:21.060Z,3.93
2023-01-17T05:46:47.593Z,3.93
2023-01-17T05:49:14.039Z,3.95
2023-01-17T05:51:40.470Z,3.96
2023-01-17T05:54:07.156Z,3.94
2023-01-17T05:56:33.956Z,3.91
2023-01-17T05:59:00.408Z,3.92
2023-01-17T06:01:26.933Z,3.88
2023-01-17T06:03:53.402Z,3.90
2023-01-17T06:06:19.867Z,3.91
2023-01-17T06:08:46.304Z,3.90
2023-01-17T06:11:12.799Z,3.90
2023-01-17T06:13:39.216Z,3.88
2023-01-17T06:16:05.794Z,3.88
2023-01-17T06:18:32.468Z,3.84
2023-01-17T06:20:58.907Z,3.87
2023-01-17T06:23:25.826Z,3.89
2023-01-17T06:25:52.526Z,3.91
2023-01-17T06:28:21.828Z,3.93
2023-01-17T06:30:48.361Z,3.94
2023-01-17T06:33:15.343Z,3.95
2023-01-17T06:35:49.109Z,3.93
2023-01-17T06:38:15.553Z,3.95
2023-01-17T06:40:42.020Z,3.96
2023-01-17T06:43:08.463Z,3.97
2023-01-17T06:45:35.415Z,3.97
2023-01-17T06:48:04.121Z,3.96
2023-01-17T06:50:31.210Z,3.97
2023-01-17T06:52:59.652Z,3.98
2023-01-17T06:55:28.892Z,3.99
2023-01-17T06:57:59.606Z,3.95
2023-01-17T07:00:30.319Z,3.95
2023-01-17T07:02:56.871Z,3.97
2023-01-17T07:05:23.567Z,4.00
2023-01-17T07:07:50.074Z,4.00
2023-01-17T07:10:16.778Z,4.03
2023-01-17T07:12:43.307Z,4.03
2023-01-17T07:15:10.159Z,4.06
2023-01-17T07:17:36.631Z,4.08
2023-01-17T07:20:03.301Z,4.09
2023-01-17T07:22:30.078Z,4.10
2023-01-17T07:24:58.784Z,4.10
2023-01-17T07:27:25.834Z,4.13
2023-01-17T07:29:54.234Z,4.13
2023-01-17T07:32:20.830Z,4.15
2023-01-17T07:34:47.354Z,4.15
2023-01-17T07:37:15.356Z,4.20
2023-01-17T07:39:42.012Z,4.18
2023-01-17T07:42:09.333Z,4.22
2023-01-17T07:44:36.064Z,4.20
2023-01-17T07:47:02.655Z,4.21
2023-01-17T07:49:29.159Z,4.23
2023-01-17T07:51:55.637Z,4.22
2023-01-17T07:54:22.174Z,4.12
2023-01-17T07:56:49.034Z,4.07
2023-01-17T07:59:15.644Z,4.10
2023-01-17T08:01:42.230Z,4.16
2023-01-17T08:04:09.439Z,4.20
2023-01-17T08:06:37.421Z,4.17
2023-01-17T08:09:03.841Z,4.18
2023-01-17T08:11:30.309Z,4.21
2023-01-17T08:14:00.215Z,4.17
2023-01-17T08:16:28.715Z,4.10
2023-01-17T08:18:55.768Z,4.06
2023-01-17T08:21:22.651Z,4.08
2023-01-17T08:23:49.953Z,4.08
2023-01-17T08:26:23.396Z,4.04
2023-01-17T08:28:56.907Z,4.05
2023-01-17T08:31:24.189Z,4.04
2023-01-17T08:33:50.700Z,4.08
2023-01-17T08:36:17.411Z,4.12
2023-01-17T08:38:43.845Z,4.13
2023-01-17T08:41:10.281Z,4.08
2023-01-17T08:43:36.766Z,4.11
2023-01-17T08:46:03.315Z,4.10
2023-01-17T08:48:29.793Z,4.09
2023-01-17T08:50:59.838Z,4.15
2023-01-17T08:53:26.274Z,4.22
2023-01-17T08:56:02.528Z,4.18
2023-01-17T08:58:30.686Z,4.22
2023-01-17T09:01:01.532Z,4.22
2023-01-17T09:03:28.144Z,4.22
2023-01-17T09:06:04.972Z,4.32
2023-01-17T09:08:31.560Z,4.36
2023-01-17T09:10:58.050Z,4.40
2023-01-17T09:13:24.558Z,4.40
2023-01-17T09:15:51.177Z,4.41
2023-01-17T09:18:17.626Z,4.45
2023-01-17T09:20:44.071Z,4.49
2023-01-17T09:23:10.518Z,4.50
2023-01-17T09:25:37.146Z,4.52
2023-01-17T09:28:03.670Z,4.57
2023-01-17T09:30:30.183Z,4.59
2023-01-17T09:32:56.711Z,4.59
2023-01-17T09:35:23.625Z,4.61
2023-01-17T09:37:50.855Z,4.66
2023-01-17T09:40:20.073Z,4.62
2023-01-17T09:42:48.213Z,4.58
2023-01-17T09:45:16.481Z,4.60
2023-01-17T09:47:47.331Z,4.65
2023-01-17T09:50:16.593Z,4.69
2023-01-17T09:52:43.383Z,4.70
2023-01-17T09:55:13.983Z,4.64
2023-01-17T09:57:40.426Z,4.62
2023-01-17T10:00:07.752Z,4.62
2023-01-17T10:02:34.267Z,4.64
2023-01-17T10:05:07.142Z,4.71
2023-01-17T10:07:42.815Z,4.65
2023-01-17T10:10:18.137Z,4.59
2023-01-17T10:12:50.829Z,4.55
2023-01-17T10:15:29.811Z,4.59
2023-01-17T10:17:56.214Z,4.59
2023-01-17T10:20:41.373Z,4.64
2023-01-17T10:23:26.696Z,4.67
2023-01-17T10:25:56.242Z,4.61
2023-01-17T10:28:31.777Z,4.56
2023-01-17T10:31:00.990Z,4.43
2023-01-17T10:33:29.615Z,4.31
2023-01-17T10:35:57.041Z,4.26
2023-01-17T10:38:30.039Z,4.24
2023-01-17T10:41:02.588Z,4.02
2023-01-17T10:43:58.638Z,3.89
2023-01-17T10:46:32.632Z,3.77
2023-01-17T10:49:01.250Z,3.68
2023-01-17T10:51:30.766Z,3.67
2023-01-17T10:54:15.973Z,3.73
2023-01-17T10:56:42.512Z,3.72
2023-01-17T10:59:27.742Z,3.62
2023-01-17T11:01:54.256Z,3.35
2023-01-17T11:04:27.024Z,3.28
2023-01-17T11:07:19.858Z,3.26
2023-01-17T11:09:51.394Z,3.27
2023-01-17T11:12:32.582Z,3.37
2023-01-17T11:15:10.957Z,3.45
2023-01-17T11:17:48.988Z,3.41
2023-01-17T11:20:19.914Z,3.25
2023-01-17T11:23:01.570Z,3.20
2023-01-17T11:25:29.444Z,3.17
2023-01-17T11:28:22.218Z,3.29
2023-01-17T11:30:56.164Z,3.34
2023-01-17T11:33:31.893Z,3.41
2023-01-17T11:35:58.492Z,3.40
2023-01-17T11:38:25.277Z,3.47
2023-01-17T11:40:53.999Z,3.45
2023-01-17T11:43:24.532Z,3.50
2023-01-17T11:46:01.566Z,3.44
2023-01-17T11:48:33.354Z,3.45
2023-01-17T11:51:00.197Z,3.52
2023-01-17T11:53:29.124Z,3.57
2023-01-17T11:55:58.594Z,3.61
2023-01-17T11:58:26.844Z,3.52
2023-01-17T12:00:58.526Z,3.55
2023-01-17T12:03:41.888Z,3.61
2023-01-17T12:06:20.521Z,3.65
2023-01-17T12:08:56.282Z,3.64
2023-01-17T12:11:30.765Z,3.61
2023-01-17T12:14:03.455Z,3.63
2023-01-17T12:16:45.189Z,3.69
2023-01-17T12:19:18.525Z,3.76
2023-01-17T12:21:58.286Z,3.75
2023-01-17T12:24:24.731Z,3.65
2023-01-17T12:27:05.636Z,3.65
2023-01-17T12:29:43.669Z,3.69
2023-01-17T12:32:25.444Z,3.67
2023-01-17T12:34:59.096Z,3.75
2023-01-17T12:37:39.512Z,3.82
2023-01-17T12:40:11.842Z,3.87
2023-01-17T12:42:41.020Z,3.89
2023-01-17T12:45:09.795Z,3.91
2023-01-17T12:47:39.790Z,3.95
2023-01-17T12:50:14.569Z,3.89
2023-01-17T12:52:53.322Z,3.84
2023-01-17T12:55:38.131Z,3.86
2023-01-17T12:58:07.170Z,3.90
2023-01-17T13:00:37.625Z,3.98
2023-01-17T13:03:07.267Z,3.96
2023-01-17T13:05:41.836Z,3.83
2023-01-17T13:08:26.792Z,3.76
2023-01-17T13:11:02.520Z,3.85
2023-01-17T13:13:29.924Z,3.95
2023-01-17T13:16:02.492Z,4.01
2023-01-17T13:18:29.971Z,4.01
2023-01-17T13:21:19.506Z,4.02
2023-01-17T13:24:04.101Z,4.06
2023-01-17T13:26:36.576Z,4.10
2023-01-17T13:29:12.100Z,4.20
2023-01-17T13:31:58.860Z,4.24
2023-01-17T13:34:25.287Z,4.25
2023-01-17T13:36:51.731Z,4.26
2023-01-17T13:39:37.119Z,4.25
2023-01-17T13:42:10.598Z,4.26
2023-01-17T13:44:37.497Z,4.27
2023-01-17T13:47:06.631Z,4.27
2023-01-17T13:49:35.081Z,4.24
2023-01-17T13:52:10.896Z,4.24
2023-01-17T13:54:51.390Z,4.26
2023-01-17T13:57:29.728Z,4.19
2023-01-17T13:59:57.199Z,4.15
2023-01-17T14:02:32.943Z,4.13
2023-01-17T14:05:20.553Z,4.14
2023-01-17T14:07:47.658Z,4.13
2023-01-17T14:10:32.793Z,4.06
2023-01-17T14:12:59.436Z,4.08
2023-01-17T14:15:27.186Z,4.03
2023-01-17T14:17:58.484Z,4.01
2023-01-17T14:20:28.069Z,3.94
2023-01-17T14:23:02.133Z,3.90
2023-01-17T14:25:30.142Z,3.87
2023-01-17T14:27:59.265Z,3.86
2023-01-17T14:30:34.078Z,3.87
2023-01-17T14:33:08.834Z,3.83
2023-01-17T14:35:40.704Z,3.78
2023-01-17T14:38:21.576Z,3.76
2023-01-17T14:40:57.189Z,3.72
2023-01-17T14:43:25.032Z,3.71
2023-01-17T14:46:02.237Z,3.69
2023-01-17T14:48:28.913Z,3.53
2023-01-17T14:50:58.623Z,3.46
2023-01-17T14:53:28.645Z,3.47
2023-01-17T14:56:03.026Z,3.43
2023-01-17T14:58:30.817Z,3.41
2023-01-17T15:01:06.844Z,3.36
2023-01-17T15:03:35.459Z,3.31
2023-01-17T15:06:22.330Z,3.32
2023-01-17T15:08:49.379Z,3.28
2023-01-17T15:11:31.550Z,3.27
2023-01-17T15:13:59.324Z,3.06
2023-01-17T15:16:30.902Z,3.07
2023-01-17T15:18:57.670Z,3.13
2023-01-17T15:21:28.610Z,3.14
2023-01-17T15:24:03.584Z,3.16
2023-01-17T15:26:33.305Z,3.14
2023-01-17T15:29:05.208Z,3.16
2023-01-17T15:31:42.649Z,3.20
2023-01-17T15:34:14.804Z,3.21
2023-01-17T15:36:41.318Z,3.15
2023-01-17T15:39:18.276Z,3.07
2023-01-17T15:41:44.756Z,3.08
2023-01-17T15:44:49.971Z,3.13
2023-01-17T15:47:33.371Z,3.16
2023-01-17T15:50:00.956Z,3.17
2023-01-17T15:52:28.159Z,3.19
2023-01-17T15:54:59.259Z,3.19
2023-01-17T15:57:27.208Z,3.18
2023-01-17T16:00:07.695Z,3.18
2023-01-17T16:02:34.183Z,3.17
2023-01-17T16:05:02.095Z,3.16
2023-01-17T16:07:34.046Z,3.16
2023-01-17T16:10:20.277Z,3.10
2023-01-17T16:12:53.257Z,3.11
2023-01-17T16:15:26.228Z,3.02
2023-01-17T16:17:55.323Z,3.01
2023-01-17T16:20:33.211Z,3.02
2023-01-17T16:23:00.526Z,3.01
2023-01-17T16:25:32.397Z,2.99
2023-01-17T16:27:59.315Z,2.97
2023-01-17T16:30:26.153Z,2.98
2023-01-17T16:32:52.619Z,2.98
2023-01-17T16:35:20.923Z,2.98
2023-01-17T16:37:54.955Z,2.93
2023-01-17T16:40:23.087Z,2.93
2023-01-17T16:42:49.519Z,2.93
2023-01-17T16:45:16.288Z,2.96
2023-01-17T16:47:43.601Z,2.97
2023-01-17T16:50:11.529Z,2.96
2023-01-17T16:52:38.112Z,2.96
2023-01-17T16:55:09.163Z,2.96
2023-01-17T16:57:35.784Z,2.96
2023-01-17T17:00:02.374Z,2.96
2023-01-17T17:02:29.124Z,2.96
2023-01-17T17:04:55.580Z,2.90
2023-01-17T17:07:22.219Z,2.91
2023-01-17T17:09:48.764Z,2.95
2023-01-17T17:12:15.205Z,2.96
2023-01-17T17:14:41.688Z,3.03
2023-01-17T17:17:08.424Z,3.14
2023-01-17T17:19:34.927Z,3.28
2023-01-17T17:22:02.061Z,3.31
2023-01-17T17:24:28.522Z,3.34
2023-01-17T17:26:54.961Z,3.43
2023-01-17T17:29:21.421Z,3.58
2023-01-17T17:31:47.909Z,3.73
2023-01-17T17:34:14.968Z,3.73
2023-01-17T17:36:41.558Z,3.66
2023-01-17T17:39:11.329Z,3.57
2023-01-17T17:41:40.823Z,3.54
2023-01-17T17:44:07.319Z,3.47
2023-01-17T17:46:34.951Z,3.43
2023-01-17T17:49:01.741Z,3.38
2023-01-17T17:51:35.832Z,3.34
2023-01-17T17:54:03.769Z,3.33
2023-01-17T17:56:30.689Z,3.31
2023-01-17T17:58:57.487Z,3.31
2023-01-17T18:01:24.450Z,3.30
2023-01-17T18:03:51.861Z,3.29
2023-01-17T18:06:18.982Z,3.28
2023-01-17T18:08:45.774Z,3.23
2023-01-17T18:11:14.962Z,3.24
2023-01-17T18:13:42.789Z,3.26
2023-01-17T18:16:11.114Z,3.24
2023-01-17T18:18:39.209Z,3.28
2023-01-17T18:21:12.976Z,3.30
2023-01-17T18:23:40.698Z,3.26
2023-01-17T18:26:15.579Z,3.25
2023-01-17T18:28:42.068Z,3.28
2023-01-17T18:31:08.552Z,3.24
2023-01-17T18:33:38.167Z,3.14
2023-01-17T18:36:05.095Z,3.16
2023-01-17T18:38:38.177Z,3.17
2023-01-17T18:41:08.898Z,3.18
2023-01-17T18:43:35.563Z,3.16
2023-01-17T18:46:02.050Z,3.19
2023-01-17T18:48:28.619Z,3.16
2023-01-17T18:50:55.895Z,3.20
2023-01-17T18:53:22.335Z,3.18
2023-01-17T18:55:52.111Z,3.24
2023-01-17T18:58:18.601Z,3.23
2023-01-17T19:00:45.075Z,3.27
2023-01-17T19:03:11.544Z,3.31
2023-01-17T19:05:38.046Z,3.32
2023-01-17T19:08:04.482Z,3.35
2023-01-17T19:10:30.904Z,3.34
2023-01-17T19:12:57.379Z,3.35
2023-01-17T19:15:23.851Z,3.36
2023-01-17T19:17:50.278Z,3.37
2023-01-17T19:20:16.936Z,3.35
2023-01-17T19:22:43.374Z,3.35
2023-01-17T19:25:09.821Z,3.33
2023-01-17T19:27:36.334Z,3.35
2023-01-17T19:30:02.830Z,3.37
2023-01-17T19:32:29.276Z,3.37
2023-01-17T19:34:55.698Z,3.37
2023-01-17T19:37:22.175Z,3.38
2023-01-17T19:39:49.275Z,3.36
2023-01-17T19:42:15.875Z,3.39
2023-01-17T19:44:43.048Z,3.40
2023-01-17T19:47:12.725Z,3.41
2023-01-17T19:49:44.292Z,3.42
2023-01-17T19:52:10.759Z,3.45
2023-01-17T19:54:37.213Z,3.44
2023-01-17T19:57:03.696Z,3.44
2023-01-17T19:59:30.127Z,3.44
2023-01-17T20:01:56.932Z,3.44
2023-01-17T20:04:23.481Z,3.45
2023-01-17T20:06:50.010Z,3.43
2023-01-17T20:09:16.826Z,3.45
2023-01-17T20:11:45.449Z,3.44
2023-01-17T20:14:15.267Z,3.43
2023-01-17T20:16:43.401Z,3.43
2023-01-17T20:19:09.977Z,3.42
2023-01-17T20:21:36.488Z,3.36
2023-01-17T20:24:05.799Z,3.40
2023-01-17T20:26:36.453Z,3.44
2023-01-17T20:29:10.051Z,3.44
2023-01-17T20:31:40.025Z,3.41
2023-01-17T20:34:08.069Z,3.41
2023-01-17T20:36:34.650Z,3.40
2023-01-17T20:39:02.559Z,3.38
2023-01-17T20:41:30.932Z,3.36
2023-01-17T20:43:58.790Z,3.36
2023-01-17T20:46:26.435Z,3.38
2023-01-17T20:48:54.177Z,3.40
2023-01-17T20:51:21.705Z,3.41
2023-01-17T20:53:51.532Z,3.42
2023-01-17T20:56:18.884Z,3.42
2023-01-17T20:58:45.607Z,3.42
2023-01-17T21:01:13.197Z,3.43
2023-01-17T21:03:39.992Z,3.44
2023-01-17T21:06:07.711Z,3.45
2023-01-17T21:08:35.879Z,3.42
2023-01-17T21:11:03.199Z,3.41
2023-01-17T21:13:29.988Z,3.41
2023-01-17T21:15:56.421Z,3.44
2023-01-17T21:18:23.561Z,3.44
2023-01-17T21:20:50.582Z,3.42
2023-01-17T21:23:20.183Z,3.40
2023-01-17T21:25:55.534Z,3.35
2023-01-17T21:28:22.532Z,3.34
2023-01-17T21:30:49.976Z,3.34
2023-01-17T21:33:17.103Z,3.35
2023-01-17T21:35:43.768Z,3.28
2023-01-17T21:38:10.433Z,3.30
2023-01-17T21:40:36.901Z,3.32
2023-01-17T21:43:03.461Z,3.27
2023-01-17T21:45:32.115Z,3.28
2023-01-17T21:47:58.996Z,3.24
2023-01-17T21:50:33.247Z,3.17
2023-01-17T21:53:00.177Z,3.15
2023-01-17T21:55:45.435Z,3.16
2023-01-17T21:58:31.364Z,3.20
2023-01-17T22:01:07.827Z,3.17
2023-01-17T22:03:34.878Z,3.21
2023-01-17T22:06:01.586Z,3.22
2023-01-17T22:08:37.942Z,3.23
2023-01-17T22:11:12.412Z,3.21
2023-01-17T22:13:39.322Z,3.16
2023-01-17T22:16:07.229Z,3.18
2023-01-17T22:18:36.092Z,3.15
2023-01-17T22:21:28.688Z,3.08
2023-01-17T22:23:59.530Z,3.08
2023-01-17T22:26:27.599Z,3.12
2023-01-17T22:28:54.831Z,3.11
2023-01-17T22:31:22.894Z,3.09
2023-01-17T22:33:56.722Z,3.03
2023-01-17T22:36:23.757Z,2.99
2023-01-17T22:38:50.688Z,2.99
2023-01-17T22:41:20.005Z,2.99
2023-01-17T22:43:48.108Z,3.05
2023-01-17T22:46:15.939Z,3.05
2023-01-17T22:48:42.478Z,3.07
2023-01-17T22:51:10.915Z,3.10
2023-01-17T22:53:41.788Z,3.13
2023-01-17T22:56:13.375Z,3.13
2023-01-17T22:58:44.566Z,3.17
2023-01-17T23:01:12.726Z,3.15
2023-01-17T23:03:42.765Z,3.13
2023-01-17T23:06:10.633Z,3.06
2023-01-17T23:08:37.308Z,2.98
2023-01-17T23:11:32.514Z,2.98
2023-01-17T23:13:58.945Z,2.95
2023-01-17T23:16:43.962Z,2.94
2023-01-17T23:19:22.177Z,2.99
2023-01-17T23:22:08.318Z,2.92
2023-01-17T23:24:34.751Z,2.97
2023-01-17T23:27:19.630Z,3.01
2023-01-17T23:29:46.056Z,3.02
2023-01-17T23:32:12.557Z,3.00
2023-01-17T23:34:39.020Z,3.00
2023-01-17T23:37:05.453Z,3.02
2023-01-17T23:39:31.880Z,3.04
2023-01-17T23:42:17.201Z,3.03
2023-01-17T23:44:43.663Z,3.05
2023-01-17T23:47:10.105Z,3.08
2023-01-17T23:49:36.561Z,3.08
2023-01-17T23:52:04.815Z,3.07
2023-01-17T23:54:32.072Z,3.01
2023-01-17T23:56:58.551Z,2.98
2023-01-17T23:59:24.948Z,2.87
